Time;durP1;ratioP1;P1;durP2;ratioP2;P2;SDS_P1;SDS_P2;PMS_P1;PMS_P2;Temp;Humidity;BMP_temperature;BMP_pressure;BME280_temperature;BME280_humidity;BME280_pressure;Samples;Min_cycle;Max_cycle;Signal;HPM_P1;HPM_P2
2023/12/17 00:00:31;;;;;;;16.48;10.43;;;;;;;9.12;100.00;103374.53;10410532;28;20037;-74
2023/12/17 00:05:31;;;;;;;13.80;10.52;;;;;;;9.14;100.00;103366.94;10453928;28;20417;-73
2023/12/17 00:10:32;;;;;;;10.85;9.65;;;;;;;9.15;100.00;103360.41;10435173;28;20501;-72
2023/12/17 00:15:32;;;;;;;13.95;9.40;;;;;;;9.12;100.00;103358.03;10436017;28;20630;-73
2023/12/17 00:20:33;;;;;;;19.88;9.82;;;;;;;9.20;100.00;103371.69;10420149;28;20757;-72
2023/12/17 00:25:33;;;;;;;13.98;10.05;;;;;;;9.16;100.00;103359.38;10417769;28;20072;-74
2023/12/17 00:30:34;;;;;;;14.23;9.35;;;;;;;9.07;100.00;103351.19;10401597;28;20029;-76
2023/12/17 00:35:34;;;;;;;14.70;9.20;;;;;;;9.19;100.00;103372.75;10435330;28;20033;-73
2023/12/17 00:40:35;;;;;;;11.35;8.85;;;;;;;9.19;100.00;103370.00;10434843;28;20041;-73
2023/12/17 00:45:35;;;;;;;13.93;10.00;;;;;;;9.15;100.00;103374.16;10453481;28;20052;-72
2023/12/17 00:50:36;;;;;;;9.52;7.65;;;;;;;9.22;100.00;103386.09;10439638;28;20045;-73
2023/12/17 00:55:36;;;;;;;12.88;7.75;;;;;;;9.21;100.00;103389.91;10421391;28;20041;-73
2023/12/17 01:00:37;;;;;;;11.30;7.70;;;;;;;8.92;100.00;103343.91;10456324;28;20033;-73
2023/12/17 01:05:37;;;;;;;12.65;7.07;;;;;;;9.11;100.00;103367.31;10442747;28;20033;-73
2023/12/17 01:10:38;;;;;;;10.98;7.60;;;;;;;9.13;100.00;103396.31;10443209;28;20049;-73
2023/12/17 01:15:38;;;;;;;12.93;7.45;;;;;;;9.14;100.00;103395.28;10443513;28;20037;-73
2023/12/17 01:20:40;;;;;;;17.58;8.55;;;;;;;9.12;100.00;103399.25;10442244;28;20051;-73
2023/12/17 01:25:40;;;;;;;12.40;8.27;;;;;;;8.83;100.00;103345.88;10405030;28;20044;-72
2023/12/17 01:30:41;;;;;;;12.10;6.82;;;;;;;9.14;100.00;103405.44;10439777;28;20056;-73
2023/12/17 01:35:42;;;;;;;14.23;7.05;;;;;;;9.15;100.00;103396.13;10427895;28;20048;-73
2023/12/17 01:40:42;;;;;;;15.73;8.15;;;;;;;9.20;100.00;103407.41;10424531;28;20036;-74
2023/12/17 01:45:43;;;;;;;13.30;6.75;;;;;;;9.18;100.00;103404.88;10459822;28;20048;-73
2023/12/17 01:50:43;;;;;;;13.32;6.43;;;;;;;9.18;100.00;103415.03;10440905;28;20037;-74
2023/12/17 01:55:45;;;;;;;8.80;6.70;;;;;;;9.15;100.00;103402.47;10425550;28;20043;-73
2023/12/17 02:00:46;;;;;;;11.10;5.90;;;;;;;9.18;100.00;103402.13;10439872;28;20041;-73
2023/12/17 02:05:47;;;;;;;9.43;6.05;;;;;;;9.21;100.00;103423.72;10430860;28;20037;-73
2023/12/17 02:10:47;;;;;;;11.55;5.55;;;;;;;9.23;100.00;103412.56;10458338;28;20044;-74
2023/12/17 02:15:48;;;;;;;8.45;6.55;;;;;;;9.21;100.00;103420.97;10441491;28;20025;-74
2023/12/17 02:20:48;;;;;;;13.65;6.18;;;;;;;9.11;100.00;103422.28;10459061;28;20025;-73
2023/12/17 02:25:48;;;;;;;10.80;6.20;;;;;;;9.16;100.00;103415.19;10440466;28;20033;-74
2023/12/17 02:30:49;;;;;;;10.88;6.45;;;;;;;9.16;100.00;103401.47;10413378;28;20075;-72
2023/12/17 02:35:49;;;;;;;12.85;6.03;;;;;;;9.14;100.00;103399.94;10430201;28;20056;-73
2023/12/17 02:40:50;;;;;;;14.27;6.68;;;;;;;9.11;100.00;103395.63;10438166;28;20052;-74
2023/12/17 02:45:50;;;;;;;13.07;5.60;;;;;;;9.16;100.00;103397.84;10458661;28;20060;-73
2023/12/17 02:50:51;;;;;;;10.48;5.78;;;;;;;9.15;100.00;103401.63;10423386;28;20501;-73
2023/12/17 02:55:51;;;;;;;9.82;6.38;;;;;;;9.16;100.00;103387.72;10457179;28;20033;-74
2023/12/17 03:00:52;;;;;;;15.52;5.32;;;;;;;9.15;100.00;103386.00;10429880;28;20491;-73
2023/12/17 03:05:52;;;;;;;10.63;6.63;;;;;;;9.11;100.00;103367.31;10434819;28;20041;-74
2023/12/17 03:10:53;;;;;;;12.88;5.88;;;;;;;9.14;100.00;103387.03;10433545;28;20080;-73
2023/12/17 03:15:53;;;;;;;11.63;5.97;;;;;;;9.19;100.00;103381.84;10435200;28;20037;-73
2023/12/17 03:20:54;;;;;;;9.05;5.60;;;;;;;9.19;100.00;103364.50;10455747;28;20040;-74
2023/12/17 03:25:54;;;;;;;7.32;5.28;;;;;;;9.16;100.00;103357.47;10456278;28;20045;-74
2023/12/17 03:30:55;;;;;;;10.68;6.57;;;;;;;9.11;100.00;103356.31;10455704;28;20048;-74
2023/12/17 03:35:55;;;;;;;10.05;5.80;;;;;;;9.07;100.00;103364.06;10436382;28;20040;-74
2023/12/17 03:40:56;;;;;;;12.43;5.60;;;;;;;9.02;100.00;103339.88;10428716;28;20033;-74
2023/12/17 03:45:56;;;;;;;14.98;5.88;;;;;;;9.01;100.00;103332.69;10437869;28;20037;-73
2023/12/17 03:50:57;;;;;;;10.07;5.90;;;;;;;9.08;100.00;103339.16;10455621;28;20041;-73
2023/12/17 03:55:57;;;;;;;9.98;5.43;;;;;;;9.17;100.00;103339.94;10421470;28;20069;-73
2023/12/17 04:00:58;;;;;;;12.75;5.55;;;;;;;9.13;100.00;103332.25;10450863;28;20037;-73
2023/12/17 04:05:59;;;;;;;8.70;5.45;;;;;;;9.21;100.00;103330.28;10453423;28;20037;-74
2023/12/17 04:10:59;;;;;;;11.30;6.18;;;;;;;8.71;100.00;103240.22;10453782;28;20040;-73
2023/12/17 04:16:00;;;;;;;13.00;6.43;;;;;;;9.17;100.00;103322.59;10437809;28;20029;-72
2023/12/17 04:21:01;;;;;;;13.15;6.15;;;;;;;9.17;100.00;103336.34;10404328;28;20052;-73
2023/12/17 04:26:02;;;;;;;9.23;5.55;;;;;;;9.17;100.00;103330.84;10459054;28;20041;-73
2023/12/17 04:31:02;;;;;;;8.57;5.43;;;;;;;9.16;100.00;103331.91;10428301;28;20500;-73
2023/12/17 04:36:03;;;;;;;11.13;5.40;;;;;;;9.15;100.00;103328.28;10437851;28;20174;-74
2023/12/17 04:41:03;;;;;;;11.73;5.43;;;;;;;9.14;100.00;103329.31;10409782;28;20044;-73
2023/12/17 04:46:04;;;;;;;10.07;5.65;;;;;;;9.15;100.00;103330.16;10428560;28;20397;-73
2023/12/17 04:51:05;;;;;;;11.20;5.82;;;;;;;9.16;100.00;103318.16;10462016;28;20052;-74
2023/12/17 04:56:06;;;;;;;17.38;7.80;;;;;;;9.19;100.00;103315.03;10441951;28;20191;-73
2023/12/17 05:01:06;;;;;;;16.00;6.63;;;;;;;9.15;100.00;103324.69;10460275;28;20049;-73
2023/12/17 05:06:07;;;;;;;11.13;5.03;;;;;;;9.04;100.00;103296.59;10426174;28;20040;-73
2023/12/17 05:11:07;;;;;;;15.52;7.35;;;;;;;9.19;100.00;103320.53;10443907;28;20516;-73
2023/12/17 05:16:08;;;;;;;12.27;6.85;;;;;;;9.12;100.00;103306.66;10443987;28;20045;-73
2023/12/17 05:21:08;;;;;;;22.60;8.43;;;;;;;9.06;100.00;103280.78;10461033;28;20033;-73
2023/12/17 05:26:09;;;;;;;12.40;7.30;;;;;;;9.14;100.00;103317.47;10436719;28;20049;-73
2023/12/17 05:31:09;;;;;;;13.65;6.80;;;;;;;9.06;100.00;103305.50;10421891;28;20104;-74
2023/12/17 05:36:10;;;;;;;13.70;7.30;;;;;;;9.09;100.00;103320.75;10434126;28;20037;-74
2023/12/17 05:41:10;;;;;;;14.52;7.95;;;;;;;9.08;100.00;103322.66;10417393;28;20041;-73
2023/12/17 05:46:11;;;;;;;14.98;7.65;;;;;;;9.01;100.00;103316.22;10458979;28;20044;-73
2023/12/17 05:51:11;;;;;;;13.25;8.45;;;;;;;8.97;100.00;103317.63;10459366;28;20100;-74
2023/12/17 05:56:12;;;;;;;12.98;7.93;;;;;;;8.96;100.00;103323.28;10442019;28;20056;-73
2023/12/17 06:01:13;;;;;;;21.45;7.78;;;;;;;8.97;100.00;103331.34;10438554;28;20528;-73
2023/12/17 06:06:15;;;;;;;14.52;7.32;;;;;;;8.91;100.00;103332.09;10383545;28;20044;-73
2023/12/17 06:11:16;;;;;;;12.43;7.65;;;;;;;8.90;100.00;103344.09;10435534;28;20476;-74
2023/12/17 06:16:17;;;;;;;11.90;7.82;;;;;;;8.85;100.00;103341.06;10423361;28;20033;-74
2023/12/17 06:21:24;;;;;;;17.05;7.18;;;;;;;8.87;100.00;103330.75;10458246;28;20056;-74
2023/12/17 06:26:25;;;;;;;8.90;5.93;;;;;;;8.81;100.00;103337.81;10439107;28;20037;-74
2023/12/17 06:31:25;;;;;;;15.68;6.38;;;;;;;8.83;100.00;103326.66;10439357;28;20505;-74
2023/12/17 06:36:26;;;;;;;9.23;6.13;;;;;;;8.71;100.00;103303.38;10439838;28;20037;-74
2023/12/17 06:41:26;;;;;;;10.90;6.45;;;;;;;8.44;100.00;103269.94;10439305;28;20055;-73
2023/12/17 06:46:26;;;;;;;15.38;6.68;;;;;;;8.66;100.00;103325.88;10455868;28;20592;-72
2023/12/17 06:51:27;;;;;;;16.00;5.60;;;;;;;8.46;100.00;103292.56;10438934;28;20120;-73
2023/12/17 06:56:27;;;;;;;15.38;6.93;;;;;;;8.58;100.00;103315.81;10439282;28;20076;-73
2023/12/17 07:01:28;;;;;;;11.70;5.95;;;;;;;8.58;100.00;103317.69;10455193;28;20041;-73
2023/12/17 07:06:30;;;;;;;7.95;4.85;;;;;;;8.56;100.00;103314.28;10455241;28;20045;-73
2023/12/17 07:11:31;;;;;;;9.77;5.03;;;;;;;8.54;100.00;103311.72;10438472;28;20064;-73
2023/12/17 07:16:31;;;;;;;11.43;4.53;;;;;;;8.53;100.00;103312.75;10438135;28;20409;-74
2023/12/17 07:21:32;;;;;;;11.48;5.03;;;;;;;8.58;100.00;103323.19;10404945;28;20560;-73
2023/12/17 07:26:32;;;;;;;9.63;4.82;;;;;;;8.62;100.00;103319.91;10421618;28;20060;-74
2023/12/17 07:31:32;;;;;;;13.57;5.88;;;;;;;8.53;100.00;103310.00;10437289;28;20036;-74
2023/12/17 07:36:33;;;;;;;8.90;6.45;;;;;;;8.54;100.00;103287.03;10435965;28;20037;-74
2023/12/17 07:41:34;;;;;;;8.07;5.97;;;;;;;8.62;100.00;103308.06;10437660;28;20037;-73
2023/12/17 07:46:34;;;;;;;12.90;7.22;;;;;;;8.66;100.00;103312.16;10420935;28;20029;-74
2023/12/17 07:51:35;;;;;;;18.20;8.70;;;;;;;8.61;100.00;103322.84;10436404;28;20049;-73
2023/12/17 07:56:35;;;;;;;18.27;8.15;;;;;;;8.57;100.00;103305.88;10453958;28;20036;-73
2023/12/17 08:01:36;;;;;;;11.73;7.40;;;;;;;8.59;100.00;103319.41;10463095;28;20488;-73
2023/12/17 08:06:36;;;;;;;20.67;7.43;;;;;;;8.57;100.00;103305.88;10431578;28;20145;-74
2023/12/17 08:11:37;;;;;;;16.80;8.05;;;;;;;8.60;100.00;103311.00;10431968;28;20054;-73
2023/12/17 08:16:37;;;;;;;12.98;9.00;;;;;;;8.51;100.00;103308.50;10416908;28;20029;-74
2023/12/17 08:21:38;;;;;;;12.65;7.32;;;;;;;8.55;100.00;103316.19;10432654;28;20091;-74
2023/12/17 08:26:38;;;;;;;12.38;7.97;;;;;;;8.58;100.00;103304.84;10448733;28;20547;-73
2023/12/17 08:31:45;;;;;;;19.70;8.02;;;;;;;8.61;100.00;103312.69;10454009;28;20037;-74
2023/12/17 08:36:45;;;;;;;14.00;9.00;;;;;;;8.54;100.00;103299.88;10399663;28;20053;-73
2023/12/17 08:41:46;;;;;;;15.60;8.57;;;;;;;8.61;100.00;103307.22;10440462;28;20044;-73
2023/12/17 08:46:46;;;;;;;17.42;10.52;;;;;;;8.59;100.00;103302.94;10466841;28;20037;-73
2023/12/17 08:51:47;;;;;;;15.23;9.00;;;;;;;8.56;100.00;103284.06;10424182;28;20050;-74
2023/12/17 08:56:47;;;;;;;15.88;9.05;;;;;;;8.63;100.00;103288.66;10408256;28;20044;-73
2023/12/17 09:01:48;;;;;;;19.60;10.40;;;;;;;8.68;100.00;103285.38;10413172;28;20045;-74
2023/12/17 09:06:49;;;;;;;21.15;9.68;;;;;;;8.68;100.00;103291.72;10407492;28;20046;-71
2023/12/17 09:11:49;;;;;;;15.52;8.70;;;;;;;8.61;100.00;103268.78;10372545;28;21092;-74
2023/12/17 09:16:50;;;;;;;18.58;10.02;;;;;;;8.71;100.00;103267.69;10418109;28;20041;-73
2023/12/17 09:21:50;;;;;;;16.45;10.63;;;;;;;8.69;100.00;103263.22;10419708;28;20068;-73
2023/12/17 09:26:50;;;;;;;18.52;10.10;;;;;;;8.68;100.00;103266.13;10414474;28;20041;-73
2023/12/17 09:31:51;;;;;;;22.38;12.77;;;;;;;8.70;100.00;103288.78;10416832;28;20044;-74
2023/12/17 09:36:51;;;;;;;16.13;11.32;;;;;;;8.63;100.00;103249.38;10415992;28;20033;-74
2023/12/17 09:41:52;;;;;;;17.55;11.02;;;;;;;8.56;100.00;103249.25;10415988;28;20033;-72
2023/12/17 09:46:52;;;;;;;19.75;10.20;;;;;;;8.78;100.00;103274.13;10417238;28;20040;-73
2023/12/17 09:52:01;;;;;;;17.45;10.57;;;;;;;8.84;100.00;103284.41;10399848;28;20128;-75
2023/12/17 09:57:02;;;;;;;24.00;11.38;;;;;;;8.87;100.00;103290.38;10399763;28;20068;-74
2023/12/17 10:02:02;;;;;;;20.73;12.02;;;;;;;8.75;100.00;103267.13;10382405;28;20064;-73
2023/12/17 10:07:03;;;;;;;24.13;11.48;;;;;;;8.57;100.00;103218.00;10416940;28;20048;-73
2023/12/17 10:12:04;;;;;;;20.27;12.07;;;;;;;8.88;100.00;103252.78;10398071;28;20188;-74
2023/12/17 10:17:04;;;;;;;22.65;12.32;;;;;;;9.03;100.00;103272.91;10417714;28;20033;-73
2023/12/17 10:22:08;;;;;;;20.38;12.13;;;;;;;8.96;100.00;103262.84;10414708;28;20033;-75
2023/12/17 10:27:16;;;;;;;31.45;16.38;;;;;;;8.89;100.00;103251.75;10403975;28;20041;-75
2023/12/17 10:32:23;;;;;;;24.33;13.25;;;;;;;8.93;100.00;103242.09;10432049;28;20057;-74
2023/12/17 10:37:24;;;;;;;27.55;14.20;;;;;;;8.96;100.00;103252.69;10430046;28;20094;-75
2023/12/17 10:42:24;;;;;;;24.10;14.57;;;;;;;9.06;100.00;103236.81;10430158;28;20505;-74
2023/12/17 10:47:25;;;;;;;24.08;14.60;;;;;;;8.99;100.00;103241.34;10436155;28;20037;-74
2023/12/17 10:52:25;;;;;;;28.40;15.32;;;;;;;9.02;100.00;103231.88;10431099;28;20064;-74
2023/12/17 10:57:26;;;;;;;28.15;14.65;;;;;;;8.89;100.00;103216.88;10426246;28;20497;-73
2023/12/17 11:02:26;;;;;;;26.48;13.80;;;;;;;8.58;100.00;103164.81;10393823;28;20413;-74
2023/12/17 11:07:27;;;;;;;26.42;14.48;;;;;;;8.69;100.00;103172.59;10414024;28;20095;-74
2023/12/17 11:12:28;;;;;;;37.40;16.38;;;;;;;8.99;100.00;103211.13;10431298;28;20042;-73
2023/12/17 11:17:28;;;;;;;29.10;14.80;;;;;;;9.03;100.00;103217.97;10421217;28;20033;-72
2023/12/17 11:22:29;;;;;;;26.60;15.20;;;;;;;8.89;100.00;103199.56;10413139;28;20052;-74
2023/12/17 11:27:30;;;;;;;26.83;13.50;;;;;;;9.01;100.00;103209.06;10409497;28;20033;-75
2023/12/17 11:32:30;;;;;;;22.58;11.73;;;;;;;9.05;100.00;103199.41;10410382;28;20560;-73
2023/12/17 11:37:34;;;;;;;22.90;12.27;;;;;;;9.18;100.00;103195.16;10415043;28;20032;-74
2023/12/17 11:42:40;;;;;;;24.60;12.50;;;;;;;9.27;100.00;103194.84;10424889;28;20029;-73
2023/12/17 11:47:40;;;;;;;21.23;12.30;;;;;;;9.20;100.00;103162.78;10410217;28;20033;-73
2023/12/17 11:52:41;;;;;;;19.45;10.18;;;;;;;9.22;100.00;103160.72;10411393;28;20048;-73
2023/12/17 11:57:42;;;;;;;17.90;9.63;;;;;;;9.21;100.00;103154.38;10433332;28;20040;-73
2023/12/17 12:02:42;;;;;;;16.55;9.88;;;;;;;9.32;100.00;103158.53;10414485;28;20040;-72
2023/12/17 12:07:42;;;;;;;17.75;10.73;;;;;;;9.44;100.00;103143.25;10408718;28;20053;-73
2023/12/17 12:12:43;;;;;;;19.02;8.77;;;;;;;9.53;100.00;103140.41;10395112;28;20037;-74
2023/12/17 12:17:43;;;;;;;15.98;8.93;;;;;;;9.31;100.00;103136.75;10431883;28;20151;-75
2023/12/17 12:22:45;;;;;;;22.10;9.85;;;;;;;9.53;100.00;103143.16;10386096;28;20061;-75
2023/12/17 12:27:46;;;;;;;17.75;9.13;;;;;;;9.42;100.00;103128.84;10425451;28;20490;-73
2023/12/17 12:32:46;;;;;;;17.85;10.60;;;;;;;9.55;100.00;103130.06;10394578;28;20061;-72
2023/12/17 12:37:47;;;;;;;18.33;9.55;;;;;;;9.66;100.00;103113.94;10404516;28;20569;-73
2023/12/17 12:42:47;;;;;;;14.25;9.40;;;;;;;9.67;100.00;103092.78;10412603;28;20033;-74
2023/12/17 12:47:48;;;;;;;14.30;9.50;;;;;;;9.79;100.00;103110.47;10412485;28;20312;-74
2023/12/17 12:52:48;;;;;;;19.50;10.88;;;;;;;9.93;100.00;103099.63;10465206;28;20048;-74
2023/12/17 12:57:49;;;;;;;21.48;11.63;;;;;;;9.90;100.00;103098.97;10433152;28;20088;-74
2023/12/17 13:02:49;;;;;;;30.33;13.70;;;;;;;10.05;100.00;103085.16;10436246;28;20092;-76
2023/12/17 13:07:50;;;;;;;22.40;14.32;;;;;;;9.76;100.00;103099.88;10428746;28;20037;-74
2023/12/17 13:12:50;;;;;;;24.83;14.60;;;;;;;9.78;100.00;103110.69;10461933;28;20064;-76
2023/12/17 13:17:51;;;;;;;29.52;14.48;;;;;;;9.71;100.00;103094.09;10453787;28;20037;-74
2023/12/17 13:22:51;;;;;;;22.15;13.15;;;;;;;9.69;100.00;103101.69;10454965;28;20049;-75
2023/12/17 13:27:52;;;;;;;24.60;14.00;;;;;;;9.63;100.00;103091.47;10478676;28;20062;-76
2023/12/17 13:32:53;;;;;;;25.95;14.07;;;;;;;9.33;100.00;103091.53;10429165;28;20041;-75
2023/12/17 13:37:53;;;;;;;25.95;15.52;;;;;;;9.12;100.00;103067.59;10457572;28;20048;-76
2023/12/17 13:42:54;;;;;;;24.17;14.90;;;;;;;9.05;100.00;103042.78;10440953;28;20041;-76
2023/12/17 13:47:55;;;;;;;26.10;14.45;;;;;;;8.97;100.00;103050.25;10459017;28;20056;-76
2023/12/17 13:52:57;;;;;;;22.77;13.25;;;;;;;8.85;100.00;103028.75;10440232;28;20067;-76
2023/12/17 13:57:58;;;;;;;26.00;15.00;;;;;;;8.95;100.00;103039.47;10421729;28;20052;-77
2023/12/17 14:02:58;;;;;;;23.10;13.45;;;;;;;8.89;100.00;103026.50;10458831;28;20037;-76
2023/12/17 14:07:58;;;;;;;21.30;12.05;;;;;;;8.74;100.00;103009.16;10429697;28;20065;-76
2023/12/17 14:13:00;;;;;;;22.83;14.07;;;;;;;8.84;100.00;103026.19;10435130;28;20049;-76
2023/12/17 14:18:00;;;;;;;25.67;13.95;;;;;;;8.78;100.00;103014.06;10451014;28;20063;-77
2023/12/17 14:23:01;;;;;;;20.52;12.98;;;;;;;8.81;100.00;103012.84;10469115;28;20041;-77
2023/12/17 14:28:01;;;;;;;22.15;12.07;;;;;;;8.70;100.00;102994.94;10474171;28;20044;-77
2023/12/17 14:33:02;;;;;;;22.85;11.88;;;;;;;8.65;100.00;102990.03;10442668;28;20049;-76
2023/12/17 14:38:03;;;;;;;21.73;11.63;;;;;;;8.49;100.00;102965.50;10461838;28;20032;-77
2023/12/17 14:43:03;;;;;;;21.45;11.35;;;;;;;8.53;100.00;102985.19;10452691;28;20041;-75
2023/12/17 14:48:04;;;;;;;22.67;11.95;;;;;;;8.57;100.00;103012.06;10403312;28;20115;-76
2023/12/17 14:53:05;;;;;;;26.63;14.55;;;;;;;8.47;100.00;103003.25;10448375;28;20043;-77
2023/12/17 14:58:07;;;;;;;27.67;13.48;;;;;;;8.34;100.00;102981.09;10455172;28;20041;-77
2023/12/17 15:03:09;;;;;;;26.65;13.18;;;;;;;8.25;100.00;102983.91;10458753;28;20052;-76
2023/12/17 15:08:09;;;;;;;26.33;14.90;;;;;;;8.08;100.00;102972.25;10454591;28;20154;-77
2023/12/17 15:13:10;;;;;;;24.83;13.20;;;;;;;8.04;100.00;102986.50;10434241;28;20052;-77
2023/12/17 15:18:11;;;;;;;23.58;13.85;;;;;;;7.87;100.00;102956.50;10453772;28;20428;-77
2023/12/17 15:23:12;;;;;;;26.02;14.25;;;;;;;7.97;100.00;102974.59;10468240;28;20048;-77
2023/12/17 15:28:12;;;;;;;22.77;11.57;;;;;;;7.84;100.00;102965.09;10470312;28;20044;-75
2023/12/17 15:33:13;;;;;;;24.65;12.65;;;;;;;7.77;100.00;102953.19;10424120;28;20210;-77
2023/12/17 15:38:13;;;;;;;24.58;11.98;;;;;;;7.77;100.00;102958.66;10434800;28;20091;-76
2023/12/17 15:43:14;;;;;;;26.00;11.90;;;;;;;7.77;100.00;102966.88;10440739;28;20068;-77
2023/12/17 15:48:14;;;;;;;25.90;12.18;;;;;;;7.80;100.00;102962.91;10434364;28;20047;-78
2023/12/17 15:53:15;;;;;;;25.45;14.70;;;;;;;7.66;100.00;102967.31;10458573;28;20098;-77
2023/12/17 15:58:17;;;;;;;25.67;12.20;;;;;;;7.58;100.00;102964.63;10451986;28;20049;-77
2023/12/17 16:03:17;;;;;;;25.13;12.98;;;;;;;7.44;100.00;102958.91;10434629;28;20067;-76
2023/12/17 16:08:18;;;;;;;25.83;12.48;;;;;;;7.35;100.00;102943.53;10432707;28;20083;-77
2023/12/17 16:13:18;;;;;;;24.67;12.30;;;;;;;7.33;100.00;102956.56;10449800;28;20048;-76
2023/12/17 16:18:19;;;;;;;24.48;12.75;;;;;;;7.33;100.00;102967.53;10435442;28;20045;-76
2023/12/17 16:23:19;;;;;;;28.92;13.80;;;;;;;7.26;100.00;102947.41;10462905;28;20052;-74
2023/12/17 16:28:20;;;;;;;29.65;11.85;;;;;;;7.29;100.00;102938.78;10473895;28;20044;-76
2023/12/17 16:33:20;;;;;;;25.65;11.40;;;;;;;7.26;100.00;102939.16;10430877;28;20036;-77
2023/12/17 16:38:21;;;;;;;23.15;11.52;;;;;;;7.22;100.00;102933.19;10459792;28;20484;-76
2023/12/17 16:43:21;;;;;;;21.60;10.20;;;;;;;7.31;100.00;102924.91;10430006;28;20040;-76
2023/12/17 16:48:22;;;;;;;19.52;10.55;;;;;;;7.26;100.00;102941.91;10441866;28;20061;-75
2023/12/17 16:53:22;;;;;;;24.27;10.45;;;;;;;7.20;100.00;102934.41;10461350;28;20044;-76
2023/12/17 16:58:25;;;;;;;20.98;10.40;;;;;;;7.13;100.00;102927.94;10426825;28;20449;-76
2023/12/17 17:03:25;;;;;;;27.38;10.88;;;;;;;7.14;100.00;102935.13;10440641;28;20059;-75
2023/12/17 17:08:26;;;;;;;18.77;8.65;;;;;;;7.05;100.00;102910.53;10443315;28;20037;-75
2023/12/17 17:13:26;;;;;;;21.98;9.52;;;;;;;7.06;100.00;102928.66;10446803;28;20044;-75
2023/12/17 17:18:27;;;;;;;18.27;7.40;;;;;;;7.08;100.00;102937.56;10473330;28;20044;-73
2023/12/17 17:23:27;;;;;;;11.60;6.82;;;;;;;7.00;100.00;102903.91;10474473;28;20136;-76
2023/12/17 17:28:29;;;;;;;19.20;7.30;;;;;;;6.97;100.00;102905.13;10426357;28;20156;-75
2023/12/17 17:33:29;;;;;;;24.95;8.10;;;;;;;7.07;100.00;102932.28;10434059;28;20052;-76
2023/12/17 17:38:30;;;;;;;26.00;7.70;;;;;;;7.10;100.00;102923.69;10436781;28;20136;-76
2023/12/17 17:43:31;;;;;;;17.63;7.28;;;;;;;7.03;100.00;102937.25;10436634;28;20057;-75
2023/12/17 17:48:32;;;;;;;12.88;5.30;;;;;;;7.03;100.00;102950.94;10407761;28;20052;-75
2023/12/17 17:53:33;;;;;;;18.10;8.02;;;;;;;7.03;100.00;102952.84;10428444;28;20037;-75
2023/12/17 17:58:34;;;;;;;12.82;4.63;;;;;;;7.05;100.00;102959.84;10455440;28;20033;-75
2023/12/17 18:03:34;;;;;;;19.80;4.72;;;;;;;7.05;100.00;102959.00;10419559;28;20041;-74
2023/12/17 18:08:35;;;;;;;13.27;4.32;;;;;;;7.14;100.00;102957.06;10440502;28;20036;-76
2023/12/17 18:13:35;;;;;;;18.17;4.15;;;;;;;7.23;100.00;102966.91;10429611;28;20363;-75
2023/12/17 18:18:36;;;;;;;15.23;4.75;;;;;;;7.15;100.00;102978.78;10457460;28;20048;-76
2023/12/17 18:23:36;;;;;;;11.60;4.80;;;;;;;7.15;100.00;102969.69;10458508;28;20036;-75
2023/12/17 18:28:37;;;;;;;14.48;4.20;;;;;;;7.16;100.00;102976.91;10419528;28;20033;-75
2023/12/17 18:33:37;;;;;;;15.15;4.88;;;;;;;7.08;100.00;102986.00;10456732;28;20064;-75
2023/12/17 18:38:44;;;;;;;11.13;4.32;;;;;;;7.04;100.00;102990.16;10438458;28;20113;-75
2023/12/17 18:43:45;;;;;;;22.70;6.68;;;;;;;7.04;100.00;102995.63;10464652;28;20112;-76
2023/12/17 18:48:47;;;;;;;14.13;4.63;;;;;;;7.08;100.00;102991.50;10455931;28;20435;-77
2023/12/17 18:53:48;;;;;;;16.15;5.25;;;;;;;6.94;100.00;102968.44;10447449;28;20037;-77
2023/12/17 18:58:48;;;;;;;19.67;5.68;;;;;;;7.12;100.00;102994.72;10429715;28;20048;-77
2023/12/17 19:03:49;;;;;;;12.70;4.88;;;;;;;7.06;100.00;102999.03;10420696;28;20037;-78
2023/12/17 19:08:49;;;;;;;15.73;5.82;;;;;;;7.06;100.00;102988.91;10437306;28;20041;-78
2023/12/17 19:13:50;;;;;;;11.43;5.20;;;;;;;7.07;100.00;102990.66;10454817;28;20053;-78
2023/12/17 19:18:51;;;;;;;14.15;5.88;;;;;;;7.03;100.00;102999.41;10462329;28;20033;-75
2023/12/17 19:23:53;;;;;;;19.02;6.97;;;;;;;6.95;100.00;102986.59;10421087;28;20044;-76
2023/12/17 19:28:54;;;;;;;15.68;7.57;;;;;;;6.99;100.00;102981.63;10403346;28;20108;-77
2023/12/17 19:33:54;;;;;;;17.30;6.22;;;;;;;7.02;100.00;102987.56;10436687;28;20064;-76
2023/12/17 19:38:55;;;;;;;18.63;7.03;;;;;;;6.97;100.00;102979.06;10418252;28;20037;-75
2023/12/17 19:43:55;;;;;;;15.55;8.02;;;;;;;7.02;100.00;102992.22;10437433;28;20033;-75
2023/12/17 19:48:57;;;;;;;20.15;7.30;;;;;;;7.00;100.00;102965.00;10430966;28;20043;-76
2023/12/17 19:53:58;;;;;;;14.80;7.90;;;;;;;7.07;100.00;102968.72;10456772;28;20095;-76
2023/12/17 19:58:59;;;;;;;21.92;8.32;;;;;;;7.13;100.00;102971.78;10424332;28;20040;-76
2023/12/17 20:04:00;;;;;;;22.00;8.25;;;;;;;7.12;100.00;102959.13;10419673;28;20032;-76
2023/12/17 20:09:00;;;;;;;18.42;7.70;;;;;;;7.13;100.00;102966.28;10456758;28;20048;-76
2023/12/17 20:14:01;;;;;;;21.33;8.55;;;;;;;7.01;100.00;102947.53;10440220;28;20044;-76
2023/12/17 20:19:03;;;;;;;14.15;7.45;;;;;;;7.07;100.00;102956.94;10418999;28;20041;-76
2023/12/17 20:24:04;;;;;;;21.27;9.05;;;;;;;7.07;100.00;102952.31;10396717;28;20179;-76
2023/12/17 20:29:05;;;;;;;23.60;8.50;;;;;;;7.09;100.00;102946.66;10414159;28;20048;-76
2023/12/17 20:34:06;;;;;;;24.65;8.23;;;;;;;7.12;100.00;102959.97;10403161;28;20053;-76
2023/12/17 20:39:06;;;;;;;19.80;7.50;;;;;;;7.19;100.00;102963.72;10401381;28;20044;-76
2023/12/17 20:44:07;;;;;;;21.00;8.50;;;;;;;7.14;100.00;102960.63;10418280;28;20041;-76
2023/12/17 20:49:08;;;;;;;23.25;9.20;;;;;;;7.21;100.00;102963.50;10401382;28;20037;-76
2023/12/17 20:54:08;;;;;;;23.30;10.20;;;;;;;7.11;100.00;102944.59;10433267;28;20112;-76
2023/12/17 20:59:09;;;;;;;17.10;7.93;;;;;;;7.17;100.00;102942.97;10435046;28;20496;-77
2023/12/17 21:04:10;;;;;;;19.15;9.30;;;;;;;7.12;100.00;102953.66;10410984;28;20514;-78
2023/12/17 21:09:13;;;;;;;20.05;8.38;;;;;;;7.17;100.00;102962.16;10433215;28;20052;-77
2023/12/17 21:14:13;;;;;;;20.33;8.55;;;;;;;7.19;100.00;102960.09;10409062;28;20052;-75
2023/12/17 21:19:13;;;;;;;18.40;8.63;;;;;;;7.02;100.00;102931.94;10442430;28;20056;-76
2023/12/17 21:24:14;;;;;;;19.73;8.27;;;;;;;7.15;100.00;102942.31;10429410;28;20552;-76
2023/12/17 21:29:15;;;;;;;19.60;8.75;;;;;;;7.17;100.00;102949.34;10441270;28;20041;-75
2023/12/17 21:34:15;;;;;;;21.95;9.50;;;;;;;7.11;100.00;102935.50;10459019;28;20543;-76
2023/12/17 21:39:16;;;;;;;22.27;8.65;;;;;;;7.15;100.00;102939.56;10441622;28;20045;-76
2023/12/17 21:44:16;;;;;;;23.88;8.18;;;;;;;7.18;100.00;102925.53;10424323;28;20078;-76
2023/12/17 21:49:17;;;;;;;25.25;9.90;;;;;;;7.17;100.00;102923.81;10424194;28;20040;-78
2023/12/17 21:54:17;;;;;;;19.33;9.13;;;;;;;7.14;100.00;102907.75;10424795;28;20123;-75
2023/12/17 21:59:18;;;;;;;19.55;8.90;;;;;;;7.24;100.00;102919.31;10458400;28;20036;-76
2023/12/17 22:04:18;;;;;;;27.00;10.32;;;;;;;7.26;100.00;102933.69;10442566;28;20079;-77
2023/12/17 22:09:19;;;;;;;26.13;8.98;;;;;;;7.16;100.00;102922.13;10440350;28;20097;-75
2023/12/17 22:14:19;;;;;;;23.17;10.63;;;;;;;7.23;100.00;102939.53;10406492;28;20064;-78
2023/12/17 22:19:20;;;;;;;30.25;11.30;;;;;;;7.19;100.00;102938.19;10422861;28;20053;-78
2023/12/17 22:24:20;;;;;;;19.10;10.35;;;;;;;7.14;100.00;102937.88;10424109;28;20527;-77
2023/12/17 22:29:21;;;;;;;21.63;10.38;;;;;;;7.07;100.00;102937.75;10456720;28;20033;-77
2023/12/17 22:34:21;;;;;;;23.65;10.63;;;;;;;7.10;100.00;102955.72;10438927;28;20041;-77
2023/12/17 22:39:22;;;;;;;23.13;9.77;;;;;;;7.09;100.00;102954.88;10440126;28;20048;-76